Time;durP1;ratioP1;P1;durP2;ratioP2;P2;SDS_P1;SDS_P2;PMS_P1;PMS_P2;Temp;Humidity;BMP_temperature;BMP_pressure;BME280_temperature;BME280_humidity;BME280_pressure;Samples;Min_cycle;Max_cycle;Signal;HPM_P1;HPM_P2
2023/03/20 00:02:06;;;;;;;;;8.50;4.25;;;;;22.64;33.54;101516.06;5090163;27;45765;-73
2023/03/20 00:04:31;;;;;;;;;5.75;5.00;;;;;22.64;32.80;101520.53;5113057;27;45440;-74
2023/03/20 00:06:57;;;;;;;;;8.75;4.50;;;;;22.61;33.16;101516.28;5099746;27;54748;-75
2023/03/20 00:09:24;;;;;;;;;4.50;4.00;;;;;22.62;33.08;101517.13;5089535;27;45354;-74
2023/03/20 00:11:50;;;;;;;;;6.25;4.25;;;;;22.62;32.97;101515.31;5106487;27;45379;-74
2023/03/20 00:14:18;;;;;;;;;6.50;4.00;;;;;22.61;33.30;101518.94;5116308;27;45300;-74
2023/03/20 00:16:45;;;;;;;;;5.75;4.25;;;;;22.58;32.85;101515.63;5099286;27;45244;-74
2023/03/20 00:19:22;;;;;;;;;9.75;5.75;;;;;22.60;32.90;101522.56;5113616;27;45467;-74
2023/03/20 00:21:49;;;;;;;;;11.00;5.25;;;;;22.56;32.65;101513.06;5116902;27;45792;-74
2023/03/20 00:24:15;;;;;;;;;6.00;4.00;;;;;22.59;32.56;101519.97;5085952;27;45389;-74
2023/03/20 00:26:42;;;;;;;;;4.25;4.25;;;;;22.59;33.04;101530.66;5075716;27;45258;-74
2023/03/20 00:29:23;;;;;;;;;6.25;5.00;;;;;22.57;33.11;101528.09;5102383;27;45664;-74
2023/03/20 00:31:49;;;;;;;;;4.50;3.75;;;;;22.57;32.72;101530.75;5088818;27;45330;-74
2023/03/20 00:34:16;;;;;;;;;6.00;4.50;;;;;22.54;32.91;101526.47;5076734;27;45368;-74
2023/03/20 00:36:41;;;;;;;;;2.25;2.00;;;;;22.55;32.25;101517.50;5108306;27;45522;-73
2023/03/20 00:39:07;;;;;;;;;7.00;4.00;;;;;22.58;32.97;101528.97;5104789;27;45445;-74
2023/03/20 00:41:54;;;;;;;;;5.00;5.00;;;;;22.56;32.65;101519.22;5079825;27;45324;-74
2023/03/20 00:44:23;;;;;;;;;3.00;3.00;;;;;22.56;32.64;101521.06;5111753;27;45409;-74
2023/03/20 00:46:52;;;;;;;;;3.75;3.75;;;;;22.56;32.57;101524.56;5097803;27;45357;-73
2023/03/20 00:49:21;;;;;;;;;4.00;4.00;;;;;22.53;32.89;101513.25;5095449;27;45454;-73
2023/03/20 00:51:47;;;;;;;;;5.25;3.50;;;;;22.51;32.56;101513.34;5091200;27;45934;-74
2023/03/20 00:54:15;;;;;;;;;3.00;3.00;;;;;22.54;32.85;101513.16;5102081;27;45350;-74
2023/03/20 00:56:53;;;;;;;;;5.00;3.00;;;;;22.54;32.56;101517.59;5098508;27;45668;-74
2023/03/20 00:59:21;;;;;;;;;5.50;5.00;;;;;22.54;32.27;101523.81;5108541;27;46294;-74
2023/03/20 01:01:48;;;;;;;;;6.75;4.75;;;;;22.54;32.48;101522.94;5086334;27;45469;-74
2023/03/20 01:04:15;;;;;;;;;4.00;4.00;;;;;22.50;32.03;101514.28;5070613;27;64819;-74
2023/03/20 01:06:41;;;;;;;;;4.50;4.50;;;;;22.53;32.67;101518.56;5085323;27;45645;-74
2023/03/20 01:09:07;;;;;;;;;4.25;4.00;;;;;22.50;32.65;101510.75;5080767;27;48210;-73
2023/03/20 01:11:33;;;;;;;;;4.00;4.00;;;;;22.52;32.10;101522.19;5098635;27;45244;-73
2023/03/20 01:13:59;;;;;;;;;6.00;3.50;;;;;22.48;32.50;101518.88;5109187;27;67920;-73
2023/03/20 01:16:26;;;;;;;;;7.00;3.50;;;;;22.51;32.37;101526.69;5092086;27;45574;-73
2023/03/20 01:18:52;;;;;;;;;4.25;3.50;;;;;22.50;32.59;101521.44;5083950;27;45517;-74
2023/03/20 01:21:19;;;;;;;;;4.00;4.00;;;;;22.50;31.96;101534.78;5084920;27;45620;-74
2023/03/20 01:23:44;;;;;;;;;4.75;4.00;;;;;22.49;32.24;101525.94;5110821;27;45301;-75
2023/03/20 01:26:33;;;;;;;;;6.00;5.00;;;;;22.49;32.16;101525.94;5107343;27;45608;-73
2023/03/20 01:28:59;;;;;;;;;6.00;4.00;;;;;22.49;31.99;101530.41;5087305;27;46789;-73
2023/03/20 01:31:24;;;;;;;;;3.50;3.50;;;;;22.48;32.25;101534.03;5111873;27;45312;-74
2023/03/20 01:33:50;;;;;;;;;4.00;4.00;;;;;22.49;32.16;101525.94;5103924;27;64029;-74
2023/03/20 01:36:20;;;;;;;;;4.00;4.00;;;;;22.46;32.05;101527.94;5099060;27;45343;-73
2023/03/20 01:38:50;;;;;;;;;7.00;4.75;;;;;22.46;32.04;101526.13;5114824;27;47119;-74
2023/03/20 01:41:16;;;;;;;;;5.00;4.25;;;;;22.47;32.39;101534.97;5109401;27;45573;-73
2023/03/20 01:43:43;;;;;;;;;6.00;4.00;;;;;22.47;31.99;101526.97;5088051;27;45388;-74
2023/03/20 01:46:21;;;;;;;;;4.50;4.50;;;;;22.47;32.47;101530.50;5089116;27;47166;-73
2023/03/20 01:48:50;;;;;;;;;5.75;4.00;;;;;22.46;31.95;101530.59;5110792;27;45616;-73
2023/03/20 01:51:21;;;;;;;;;6.50;5.00;;;;;22.45;32.43;101528.88;5096086;27;45375;-74
2023/03/20 01:54:00;;;;;;;;;6.00;4.75;;;;;22.45;32.30;101515.53;5095647;27;45185;-74
2023/03/20 01:56:28;;;;;;;;;6.50;5.00;;;;;22.45;31.94;101519.09;5095631;27;45520;-73
2023/03/20 01:58:59;;;;;;;;;5.25;3.50;;;;;22.41;32.27;101512.22;5092260;27;46496;-72
2023/03/20 02:01:25;;;;;;;;;4.00;4.00;;;;;22.44;31.70;101516.50;5113046;27;45232;-72
2023/03/20 02:03:50;;;;;;;;;4.50;4.50;;;;;22.41;32.01;101511.38;5097276;27;45728;-72
2023/03/20 02:06:18;;;;;;;;;6.25;4.25;;;;;22.42;31.71;101521.09;5116343;27;45516;-73
2023/03/20 02:08:49;;;;;;;;;5.50;3.50;;;;;22.39;32.08;101508.78;5074598;27;45501;-73
2023/03/20 02:11:16;;;;;;;;;7.00;5.00;;;;;22.41;31.74;101516.69;5085665;27;45327;-73
2023/03/20 02:13:43;;;;;;;;;5.25;4.00;;;;;22.38;32.04;101507.06;5089728;27;45447;-73
2023/03/20 02:16:14;;;;;;;;;4.00;4.00;;;;;22.40;31.64;101520.31;5101223;27;45446;-72
2023/03/20 02:18:46;;;;;;;;;6.25;4.00;;;;;22.40;31.88;101505.19;5073469;27;45306;-73
2023/03/20 02:21:30;;;;;;;;;4.75;4.50;;;;;22.40;31.60;101504.31;5096548;27;46880;-73
2023/03/20 02:24:29;;;;;;;;;5.50;4.00;;;;;22.40;31.53;101504.31;5109708;27;45544;-72
2023/03/20 02:27:32;;;;;;;;;4.00;4.00;;;;;22.36;31.54;101500.97;5121071;27;45574;-73
2023/03/20 02:30:27;;;;;;;;;4.75;2.75;;;;;22.37;31.52;101494.72;5106999;27;45454;-73
2023/03/20 02:33:17;;;;;;;;;4.75;4.75;;;;;22.36;32.08;101499.19;5106896;27;45375;-72
2023/03/20 02:36:13;;;;;;;;;5.25;3.00;;;;;22.35;32.06;101500.13;5115266;27;45425;-72
2023/03/20 02:38:51;;;;;;;;;4.50;4.50;;;;;22.35;31.70;101502.81;5109248;27;45457;-72
2023/03/20 02:41:22;;;;;;;;;5.00;5.00;;;;;22.34;31.88;101497.56;5107924;27;45485;-72
2023/03/20 02:43:50;;;;;;;;;5.75;4.00;;;;;22.35;32.06;101499.28;5116323;27;45784;-72
2023/03/20 02:46:22;;;;;;;;;6.25;5.00;;;;;22.34;31.59;101497.56;5115465;27;45307;-72
2023/03/20 02:48:48;;;;;;;;;5.50;5.00;;;;;22.34;31.67;101492.22;5093936;27;45383;-72
2023/03/20 02:51:19;;;;;;;;;6.33;6.33;;;;;22.33;31.36;101494.06;5114224;27;46031;-72
2023/03/20 02:53:58;;;;;;;;;6.00;4.75;;;;;22.32;31.93;101497.66;5119468;27;45868;-72
2023/03/20 02:56:47;;;;;;;;;9.00;5.00;;;;;22.31;31.61;101487.09;5117638;27;45560;-71
2023/03/20 02:59:31;;;;;;;;;6.00;6.00;;;;;22.30;31.67;101482.72;5111706;27;45216;-72
2023/03/20 03:02:06;;;;;;;;;6.00;6.00;;;;;22.30;31.60;101488.06;5077157;27;45427;-72
2023/03/20 03:04:36;;;;;;;;;8.50;7.75;;;;;22.30;31.55;101483.56;5090933;27;45705;-72
2023/03/20 03:07:05;;;;;;;;;7.00;6.00;;;;;22.30;31.92;101483.56;5098221;27;45496;-72
2023/03/20 03:09:35;;;;;;;;;6.25;6.00;;;;;22.30;31.55;101486.25;5083238;27;45685;-72
2023/03/20 03:12:10;;;;;;;;;5.75;5.00;;;;;22.30;31.50;101480.06;5090942;27;46436;-72
2023/03/20 03:14:42;;;;;;;;;9.25;4.00;;;;;22.30;31.64;101480.06;5090692;27;45390;-72
2023/03/20 03:17:10;;;;;;;;;5.00;5.00;;;;;22.29;31.65;101476.56;5093649;27;47006;-72
2023/03/20 03:19:37;;;;;;;;;4.50;4.50;;;;;22.27;31.61;101482.91;5091772;27;45459;-72
2023/03/20 03:22:03;;;;;;;;;8.75;4.25;;;;;22.30;31.94;101494.25;5096896;27;46144;-72
2023/03/20 03:24:36;;;;;;;;;6.50;6.00;;;;;22.28;31.78;101490.81;5106035;27;45288;-72
2023/03/20 03:27:06;;;;;;;;;6.25;5.50;;;;;22.28;31.40;101490.81;5116197;27;45568;-72
2023/03/20 03:29:36;;;;;;;;;5.75;5.75;;;;;22.28;31.62;101487.31;5093452;27;45279;-72
2023/03/20 03:32:03;;;;;;;;;5.25;5.25;;;;;22.28;31.88;101485.50;5077381;27;47274;-72
2023/03/20 03:34:28;;;;;;;;;6.25;5.75;;;;;22.29;31.93;101489.00;5080340;27;45461;-72
2023/03/20 03:37:07;;;;;;;;;8.25;7.75;;;;;22.26;31.56;101479.38;5119623;27;45496;-72
2023/03/20 03:39:40;;;;;;;;;9.00;6.00;;;;;22.28;31.73;101484.66;5087685;27;45592;-72
2023/03/20 03:42:38;;;;;;;;;8.75;8.75;;;;;22.24;31.46;101483.06;5093309;27;46002;-72
2023/03/20 03:45:11;;;;;;;;;9.25;7.50;;;;;22.26;31.86;101479.38;5096769;27;45302;-72
2023/03/20 03:47:42;;;;;;;;;8.00;7.25;;;;;22.26;31.79;101476.72;5080243;27;45513;-72
2023/03/20 03:50:16;;;;;;;;;9.75;9.00;;;;;22.25;31.56;101474.13;5092206;27;45506;-72
2023/03/20 03:52:42;;;;;;;;;6.00;5.75;;;;;22.24;31.53;101473.28;5077632;27;48509;-72
2023/03/20 03:55:11;;;;;;;;;6.50;6.25;;;;;22.22;32.03;101463.66;5099587;27;59195;-71
2023/03/20 03:57:43;;;;;;;;;6.25;6.25;;;;;22.22;31.43;101464.50;5079331;27;45362;-72
2023/03/20 04:00:10;;;;;;;;;8.75;8.00;;;;;22.22;31.69;101467.19;5091891;27;45407;-72
2023/03/20 04:02:37;;;;;;;;;9.50;8.50;;;;;22.23;31.59;101473.38;5102298;27;46385;-72
2023/03/20 04:05:03;;;;;;;;;10.25;8.75;;;;;22.22;31.76;101466.31;5091148;27;71555;-72
2023/03/20 04:07:28;;;;;;;;;12.25;8.25;;;;;22.20;31.24;101471.75;5095600;27;45662;-72
2023/03/20 04:09:54;;;;;;;;;9.00;8.00;;;;;22.21;31.76;101473.47;5084943;27;73246;-73
2023/03/20 04:12:38;;;;;;;;;6.50;6.50;;;;;22.21;31.80;101477.97;5083243;27;47317;-73
2023/03/20 04:15:04;;;;;;;;;9.25;8.25;;;;;22.19;31.74;101484.25;5090039;27;45469;-72
2023/03/20 04:17:30;;;;;;;;;7.75;7.75;;;;;22.20;31.80;101490.41;5105310;27;45180;-73
2023/03/20 04:19:55;;;;;;;;;12.50;9.25;;;;;22.18;31.20;101490.50;5097837;27;46164;-73
2023/03/20 04:22:21;;;;;;;;;9.75;8.00;;;;;22.19;31.76;101497.56;5107025;27;46311;-73
2023/03/20 04:24:46;;;;;;;;;9.00;8.00;;;;;22.18;31.66;101497.66;5087867;27;45391;-72
2023/03/20 04:27:11;;;;;;;;;9.25;9.00;;;;;22.19;31.57;101499.38;5111616;27;64214;-73
2023/03/20 04:29:37;;;;;;;;;8.75;8.75;;;;;22.16;31.57;101491.56;5083670;27;45453;-72
2023/03/20 04:32:02;;;;;;;;;11.00;8.50;;;;;22.16;31.77;101497.75;5107681;27;64645;-72
2023/03/20 04:34:28;;;;;;;;;11.50;9.25;;;;;22.17;31.76;101495.97;5104008;27;46429;-72
2023/03/20 04:36:53;;;;;;;;;9.50;8.00;;;;;22.17;31.46;101494.16;5111199;27;45711;-72
2023/03/20 04:39:19;;;;;;;;;11.00;7.25;;;;;22.17;31.17;101502.16;5090337;27;45491;-72
2023/03/20 04:41:45;;;;;;;;;10.50;8.50;;;;;22.16;31.52;101503.09;5093474;27;46021;-72
2023/03/20 04:44:10;;;;;;;;;7.00;6.00;;;;;22.14;31.38;101497.00;5071313;27;45342;-72
2023/03/20 04:46:35;;;;;;;;;8.00;8.00;;;;;22.14;31.32;101496.16;5112873;27;58207;-72
2023/03/20 04:49:01;;;;;;;;;9.50;9.00;;;;;22.15;31.70;101506.72;5109560;27;69339;-72
2023/03/20 04:51:26;;;;;;;;;13.25;6.50;;;;;22.14;31.61;101497.00;5114338;27;66486;-72
2023/03/20 04:53:51;;;;;;;;;8.75;7.75;;;;;22.13;31.01;101495.31;5081278;27;45795;-73
2023/03/20 04:56:17;;;;;;;;;8.00;8.00;;;;;22.13;31.35;101500.66;5095447;27;68226;-73
2023/03/20 04:58:42;;;;;;;;;9.00;8.00;;;;;22.13;31.32;101492.66;5100763;27;45480;-72
2023/03/20 05:01:07;;;;;;;;;11.50;8.00;;;;;22.15;31.47;101492.53;5098398;27;45836;-72
2023/03/20 05:03:34;;;;;;;;;9.25;9.25;;;;;22.14;31.50;101491.66;5114788;27;67699;-73
2023/03/20 05:05:59;;;;;;;;;8.00;7.75;;;;;22.13;31.47;101491.75;5079245;27;46941;-73
2023/03/20 05:08:24;;;;;;;;;9.25;6.25;;;;;22.13;31.19;101483.78;5118955;27;45427;-72
2023/03/20 05:10:50;;;;;;;;;11.75;7.25;;;;;22.14;31.57;101485.50;5094178;27;64003;-72
2023/03/20 05:13:16;;;;;;;;;9.75;8.25;;;;;22.14;31.24;101485.50;5095736;27;45407;-73
2023/03/20 05:15:42;;;;;;;;;8.75;7.75;;;;;22.13;31.34;101481.09;5108420;27;45572;-73
2023/03/20 05:18:08;;;;;;;;;10.50;9.50;;;;;22.11;31.48;101486.53;5108199;27;45490;-72
2023/03/20 05:20:35;;;;;;;;;9.50;7.25;;;;;22.12;31.00;101490.91;5096054;27;45634;-72
2023/03/20 05:23:01;;;;;;;;;8.75;8.50;;;;;22.11;31.57;101486.53;5094857;27;45370;-72
2023/03/20 05:25:26;;;;;;;;;12.75;10.00;;;;;22.08;31.03;101475.19;5096869;27;45451;-72
2023/03/20 05:27:51;;;;;;;;;6.50;6.25;;;;;22.11;31.05;101478.53;5111323;27;55940;-73
2023/03/20 05:30:18;;;;;;;;;9.50;7.75;;;;;22.12;31.05;101485.59;5098412;27;55554;-72
2023/03/20 05:32:44;;;;;;;;;11.75;9.00;;;;;22.11;31.17;101481.19;5109111;27;45436;-72
2023/03/20 05:35:10;;;;;;;;;10.25;9.00;;;;;22.11;31.08;101475.88;5109706;27;45445;-73
2023/03/20 05:37:35;;;;;;;;;8.75;7.00;;;;;22.11;31.53;101477.69;5098048;27;45427;-73
2023/03/20 05:40:02;;;;;;;;;9.75;7.00;;;;;22.08;31.12;101476.09;5107357;27;45361;-72
2023/03/20 05:42:27;;;;;;;;;10.25;7.25;;;;;22.11;31.28;101481.19;5094990;27;46021;-72
2023/03/20 05:44:52;;;;;;;;;13.50;10.00;;;;;22.09;31.19;101482.25;5115336;27;68127;-72
2023/03/20 05:47:17;;;;;;;;;7.75;7.50;;;;;22.09;31.44;101482.25;5101559;27;70500;-72
2023/03/20 05:49:43;;;;;;;;;6.50;6.00;;;;;22.08;31.51;101484.09;5117109;27;72448;-73
2023/03/20 05:52:08;;;;;;;;;10.75;6.00;;;;;22.08;31.56;101481.41;5093745;27;45268;-72
2023/03/20 05:54:34;;;;;;;;;9.75;7.50;;;;;22.08;30.91;101483.19;5115072;27;45343;-72
2023/03/20 05:56:59;;;;;;;;;9.00;8.00;;;;;22.09;31.40;101480.44;5109832;27;45479;-72
2023/03/20 05:59:25;;;;;;;;;7.00;6.00;;;;;22.07;31.36;101478.84;5096998;27;46291;-72
2023/03/20 06:01:50;;;;;;;;;6.75;6.00;;;;;22.07;31.43;101477.03;5110049;27;70627;-72
2023/03/20 06:04:16;;;;;;;;;7.00;7.00;;;;;22.07;31.25;101493.00;5092755;27;45379;-72
2023/03/20 06:06:41;;;;;;;;;7.50;6.50;;;;;22.06;31.43;101483.31;5098896;27;48811;-72
2023/03/20 06:09:06;;;;;;;;;7.75;6.25;;;;;22.05;31.14;101492.25;5097031;27;45509;-73
2023/03/20 06:11:32;;;;;;;;;11.75;6.50;;;;;22.08;30.99;101497.41;5118594;27;55256;-73
2023/03/20 06:13:58;;;;;;;;;7.25;6.25;;;;;22.09;31.24;101500.91;5083134;27;52115;-73
2023/03/20 06:16:23;;;;;;;;;6.50;5.00;;;;;22.09;31.03;101500.91;5087664;27;45260;-72
2023/03/20 06:18:49;;;;;;;;;8.50;6.00;;;;;22.10;31.11;101495.50;5087549;27;45599;-73
2023/03/20 06:21:14;;;;;;;;;6.50;6.00;;;;;22.13;31.40;101507.75;5098892;27;45762;-72
2023/03/20 06:23:40;;;;;;;;;6.50;5.00;;;;;22.12;30.66;101500.72;5086000;27;45544;-72
2023/03/20 06:26:05;;;;;;;;;7.75;5.00;;;;;22.14;31.24;101505.00;5101331;27;45597;-73
2023/03/20 06:28:31;;;;;;;;;5.00;4.25;;;;;22.16;31.17;101503.09;5121473;27;45429;-72
2023/03/20 06:30:56;;;;;;;;;4.00;3.00;;;;;22.20;31.12;101509.09;5108043;27;45449;-73
2023/03/20 06:33:22;;;;;;;;;9.50;7.75;;;;;22.23;30.98;101506.22;5098290;27;45516;-73
2023/03/20 06:35:48;;;;;;;;;10.50;7.50;;;;;22.27;31.73;101509.59;5103707;27;45524;-72
2023/03/20 06:38:13;;;;;;;;;9.50;5.50;;;;;22.30;32.11;101506.72;5082802;27;47335;-73
2023/03/20 06:40:39;;;;;;;;;7.50;5.00;;;;;22.30;31.85;101504.06;5094105;27;45421;-73
2023/03/20 06:43:04;;;;;;;;;7.75;3.00;;;;;22.28;31.08;101504.16;5112031;27;45613;-71
2023/03/20 06:45:30;;;;;;;;;6.25;4.00;;;;;22.26;31.29;101499.84;5113008;27;45389;-76
2023/03/20 06:47:55;;;;;;;;;3.00;3.00;;;;;22.19;31.07;101489.56;5122779;27;45461;-78
2023/03/20 06:50:21;;;;;;;;;2.75;1.50;;;;;22.19;30.82;101491.38;5106133;27;45331;-76
2023/03/20 06:52:47;;;;;;;;;8.00;4.00;;;;;22.16;30.87;101499.56;5096323;27;45383;-78
2023/03/20 06:55:12;;;;;;;;;4.00;3.00;;;;;22.12;30.55;101503.41;5088579;27;45335;-78
2023/03/20 06:57:38;;;;;;;;;3.00;3.00;;;;;22.06;30.82;101504.66;5104060;27;46753;-76
2023/03/20 07:00:04;;;;;;;;;2.75;2.00;;;;;22.03;30.44;101491.50;5102761;27;45217;-79
2023/03/20 07:02:30;;;;;;;;;4.75;3.00;;;;;22.02;30.74;101500.44;5092851;27;45472;-76
2023/03/20 07:04:55;;;;;;;;;6.50;3.00;;;;;21.98;30.16;101509.59;5106249;27;45621;-77
2023/03/20 07:07:20;;;;;;;;;21.25;18.00;;;;;21.98;30.58;101518.44;5080493;27;47325;-77
2023/03/20 07:09:46;;;;;;;;;14.75;12.75;;;;;21.90;30.47;101514.53;5081950;27;45552;-78
2023/03/20 07:12:13;;;;;;;;;7.00;4.75;;;;;21.92;30.46;101521.50;5095530;27;45366;-77
2023/03/20 07:14:40;;;;;;;;;6.50;4.25;;;;;21.91;30.61;101518.94;5095924;27;45509;-78
2023/03/20 07:17:07;;;;;;;;;5.00;4.50;;;;;21.90;30.39;101517.19;5084789;27;47749;-77
2023/03/20 07:19:33;;;;;;;;;4.25;3.50;;;;;21.83;30.15;101514.06;5109372;27;45296;-77
2023/03/20 07:22:02;;;;;;;;;3.50;3.00;;;;;21.83;30.38;101515.88;5092030;27;45527;-77
2023/03/20 07:24:27;;;;;;;;;5.25;3.25;;;;;21.82;30.29;101527.50;5103454;27;45382;-72
2023/03/20 07:26:52;;;;;;;;;4.00;2.25;;;;;21.78;29.88;101511.69;5095786;27;71110;-71
2023/03/20 07:29:17;;;;;;;;;3.50;3.50;;;;;21.79;29.91;101510.72;5109806;27;73192;-75
2023/03/20 07:31:43;;;;;;;;;5.50;2.50;;;;;21.77;30.69;101503.78;5090625;27;65457;-71
2023/03/20 07:34:09;;;;;;;;;3.00;3.00;;;;;21.84;30.62;101499.78;5110678;27;45489;-72
2023/03/20 07:36:35;;;;;;;;;1.75;1.00;;;;;21.87;30.66;101506.72;5082364;27;45408;-73
2023/03/20 07:39:00;;;;;;;;;4.75;2.00;;;;;21.95;30.41;101515.97;5112668;27;45278;-71
2023/03/20 07:41:25;;;;;;;;;4.25;2.00;;;;;21.99;30.92;101520.16;5114863;27;45462;-71
2023/03/20 07:43:51;;;;;;;;;2.50;2.00;;;;;22.05;30.86;101510.06;5081290;27;57696;-71
2023/03/20 07:46:16;;;;;;;;;2.00;2.00;;;;;22.06;31.61;101515.31;5111086;27;73809;-73
2023/03/20 07:48:41;;;;;;;;;4.75;2.25;;;;;22.14;31.35;101518.31;5108031;27;45493;-71
2023/03/20 07:51:07;;;;;;;;;4.75;2.00;;;;;22.18;31.76;101513.66;5089789;27;46936;-71
2023/03/20 07:53:32;;;;;;;;;2.25;2.00;;;;;22.21;32.33;101507.28;5103605;27;45523;-73
2023/03/20 07:55:57;;;;;;;;;3.00;2.00;;;;;22.27;32.03;101510.44;5078438;27;47990;-72
2023/03/20 07:58:23;;;;;;;;;3.50;2.75;;;;;22.32;32.13;101512.81;5118492;27;45985;-72
2023/03/20 08:00:48;;;;;;;;;3.00;2.25;;;;;22.39;32.21;101500.78;5102696;27;45657;-72
2023/03/20 08:03:13;;;;;;;;;2.25;2.00;;;;;22.45;32.75;101504.88;5107708;27;73081;-73
2023/03/20 08:05:39;;;;;;;;;5.25;2.00;;;;;22.49;32.65;101504.59;5096718;27;52803;-73
2023/03/20 08:08:05;;;;;;;;;10.00;6.25;;;;;22.52;32.59;101504.41;5109136;27;45457;-73
2023/03/20 08:10:30;;;;;;;;;5.75;4.00;;;;;22.55;32.88;101512.16;5113024;27;46241;-72
2023/03/20 08:12:56;;;;;;;;;6.25;4.75;;;;;22.61;32.65;101513.59;5102461;27;59080;-72
2023/03/20 08:15:21;;;;;;;;;3.00;3.00;;;;;22.62;33.07;101509.13;5097973;27;47872;-77
2023/03/20 08:17:47;;;;;;;;;4.25;2.50;;;;;22.70;33.24;101512.13;5084400;27;45347;-74
2023/03/20 08:20:13;;;;;;;;;5.00;2.50;;;;;22.69;32.85;101505.09;5092977;27;45462;-74
2023/03/20 08:22:39;;;;;;;;;2.00;1.00;;;;;22.79;33.19;101519.53;5119625;27;45451;-75
2023/03/20 08:25:06;;;;;;;;;2.50;2.50;;;;;22.83;32.96;101530.88;5104894;27;46141;-71
2023/03/20 08:27:31;;;;;;;;;4.50;2.50;;;;;22.86;33.21;101527.97;5099008;27;45727;-72
2023/03/20 08:29:56;;;;;;;;;5.25;2.00;;;;;22.87;33.24;101525.22;5106554;27;45588;-73
2023/03/20 08:32:22;;;;;;;;;2.25;1.00;;;;;22.92;33.43;101528.44;5097138;27;54702;-71
2023/03/20 08:34:47;;;;;;;;;2.75;1.00;;;;;22.93;33.05;101530.16;5077077;27;65269;-72
2023/03/20 08:37:13;;;;;;;;;4.25;2.00;;;;;22.99;32.97;101536.88;5073643;27;45411;-74
2023/03/20 08:39:39;;;;;;;;;4.25;2.25;;;;;22.99;33.46;101541.38;5079822;27;45845;-73
2023/03/20 08:42:05;;;;;;;;;2.50;2.00;;;;;23.07;33.26;101547.97;5080228;27;45649;-73
2023/03/20 08:44:31;;;;;;;;;1.75;1.75;;;;;23.07;33.04;101542.63;5094371;27;46274;-72
2023/03/20 08:46:56;;;;;;;;;2.50;2.25;;;;;23.08;33.01;101540.78;5089225;27;45480;-72
2023/03/20 08:49:22;;;;;;;;;1.75;1.75;;;;;23.09;32.88;101546.03;5111357;27;56821;-72
2023/03/20 08:51:47;;;;;;;;;4.75;2.00;;;;;23.10;32.94;101545.06;5113018;27;59777;-73
2023/03/20 08:54:15;;;;;;;;;2.75;2.25;;;;;23.16;33.09;101556.28;5080840;27;47521;-72
2023/03/20 08:56:41;;;;;;;;;3.75;2.75;;;;;23.17;32.92;101560.69;5097150;27;45858;-72
2023/03/20 08:59:06;;;;;;;;;5.25;2.75;;;;;23.16;33.09;101551.81;5094742;27;45362;-72
2023/03/20 09:01:31;;;;;;;;;4.50;1.75;;;;;23.16;32.86;101548.28;5105205;27;70465;-72
2023/03/20 09:03:57;;;;;;;;;3.25;2.25;;;;;23.18;33.03;101543.69;5096426;27;47197;-72
2023/03/20 09:06:22;;;;;;;;;3.25;2.00;;;;;23.16;33.10;101538.47;5084925;27;45923;-72
2023/03/20 09:08:47;;;;;;;;;2.25;1.25;;;;;23.16;33.19;101538.47;5099065;27;45294;-72
2023/03/20 09:11:13;;;;;;;;;1.75;0.50;;;;;23.20;33.00;101537.31;5100600;27;45707;-72
2023/03/20 09:13:38;;;;;;;;;1.25;1.25;;;;;23.22;33.20;101534.53;5116749;27;54577;-72
2023/03/20 09:16:05;;;;;;;;;2.25;2.00;;;;;23.19;32.98;101529.38;5086427;27;45205;-72
2023/03/20 09:18:30;;;;;;;;;1.50;1.00;;;;;23.22;32.82;101531.84;5116960;27;45462;-72
2023/03/20 09:20:56;;;;;;;;;3.50;2.25;;;;;23.22;33.20;101521.19;5108929;27;45453;-73
2023/03/20 09:23:21;;;;;;;;;2.25;0.50;;;;;23.22;32.75;101518.50;5097901;27;58693;-72
2023/03/20 09:25:46;;;;;;;;;1.25;1.00;;;;;23.20;32.70;101513.25;5104228;27;45519;-71
2023/03/20 09:28:12;;;;;;;;;3.50;1.25;;;;;23.21;32.80;101519.44;5088809;27;45539;-71
2023/03/20 09:30:37;;;;;;;;;6.00;2.00;;;;;23.19;33.04;101508.03;5096966;27;45471;-71
2023/03/20 09:33:03;;;;;;;;;1.75;1.75;;;;;23.20;32.93;101509.75;5078653;27;48439;-71
2023/03/20 09:35:28;;;;;;;;;4.50;2.00;;;;;23.20;32.71;101509.75;5109283;27;60302;-71
2023/03/20 09:37:53;;;;;;;;;2.50;1.25;;;;;23.23;33.04;101512.19;5105080;27;68063;-71
2023/03/20 09:40:51;;;;;;;;;2.25;1.00;;;;;23.21;32.90;101506.09;5120039;27;55838;-71
2023/03/20 09:43:38;;;;;;;;;3.00;1.00;;;;;23.24;32.83;101509.41;5075286;27;47194;-71
2023/03/20 09:46:23;;;;;;;;;0.25;0.25;;;;;23.26;32.80;101506.66;5085937;27;45344;-71
2023/03/20 09:49:22;;;;;;;;;1.50;0.25;;;;;23.26;32.85;101518.19;5085105;27;45269;-72
2023/03/20 09:51:56;;;;;;;;;1.75;1.75;;;;;23.25;32.96;101519.16;5075695;27;45413;-72
2023/03/20 09:54:28;;;;;;;;;1.75;1.75;;;;;23.30;32.96;101530.38;5095232;27;47668;-72
2023/03/20 09:56:55;;;;;;;;;1.50;0.50;;;;;23.31;32.59;101524.06;5097472;27;45705;-72
2023/03/20 09:59:23;;;;;;;;;1.00;0.50;;;;;23.31;32.52;101529.41;5087873;27;45549;-72
2023/03/20 10:01:54;;;;;;;;;1.25;1.00;;;;;23.28;32.90;101512.72;5103538;27;45323;-72
2023/03/20 10:04:30;;;;;;;;;1.00;1.00;;;;;23.33;32.97;101518.63;5082221;27;47945;-73
2023/03/20 10:06:56;;;;;;;;;3.00;1.00;;;;;23.34;32.71;101522.13;5102241;27;45296;-73
2023/03/20 10:09:24;;;;;;;;;2.50;2.00;;;;;23.38;32.90;101527.19;5100511;27;47583;-72
2023/03/20 10:11:56;;;;;;;;;2.00;0.25;;;;;23.40;32.84;101525.25;5071020;27;45456;-72
2023/03/20 10:14:32;;;;;;;;;2.00;2.00;;;;;23.39;32.78;101520.88;5097665;27;45489;-72
2023/03/20 10:17:19;;;;;;;;;5.25;1.25;;;;;23.40;32.78;101511.88;5101879;27;46077;-72
2023/03/20 10:19:50;;;;;;;;;3.75;2.00;;;;;23.40;32.51;101511.88;5118159;27;45517;-72
2023/03/20 10:22:31;;;;;;;;;2.50;1.75;;;;;23.38;32.67;101507.63;5080359;27;45485;-72
2023/03/20 10:25:07;;;;;;;;;2.50;2.00;;;;;23.40;32.69;101509.22;5069928;27;48292;-72
2023/03/20 10:27:38;;;;;;;;;1.75;0.25;;;;;23.41;32.74;101512.75;5097570;27;45640;-72
2023/03/20 10:30:52;;;;;;;;;2.00;2.00;;;;;23.41;33.10;101499.38;5104446;27;45445;-70
2023/03/20 10:33:43;;;;;;;;;1.75;1.50;;;;;23.40;32.84;101511.88;5084241;27;45557;-72
2023/03/20 10:36:37;;;;;;;;;2.00;1.00;;;;;23.40;32.77;101503.88;5125128;27;46383;-72
2023/03/20 10:39:32;;;;;;;;;4.25;2.00;;;;;23.39;33.06;101503.97;5113384;27;45219;-72
2023/03/20 10:42:02;;;;;;;;;4.25;2.00;;;;;23.38;32.67;101499.63;5086577;27;45531;-72
2023/03/20 10:44:32;;;;;;;;;1.50;1.25;;;;;23.39;32.84;101501.31;5083127;27;45335;-73
2023/03/20 10:46:59;;;;;;;;;3.75;2.00;;;;;23.36;32.91;101501.53;5103921;27;45361;-72
2023/03/20 10:49:44;;;;;;;;;4.75;1.75;;;;;23.33;32.82;101491.06;5088335;27;45521;-72
2023/03/20 10:52:16;;;;;;;;;1.25;1.25;;;;;23.33;32.91;101491.91;5084997;27;45297;-71
2023/03/20 10:54:46;;;;;;;;;1.75;1.75;;;;;23.34;32.73;101498.97;5090882;27;45259;-71
2023/03/20 10:57:20;;;;;;;;;3.00;2.50;;;;;23.34;32.80;101501.66;5108429;27;45465;-71
2023/03/20 10:59:48;;;;;;;;;2.75;1.25;;;;;23.36;32.80;101493.53;5087572;27;45336;-71
2023/03/20 11:02:15;;;;;;;;;1.25;0.25;;;;;23.31;32.50;101484.00;5083835;27;45816;-71
2023/03/20 11:04:41;;;;;;;;;2.25;1.25;;;;;23.36;33.01;101486.38;5083342;27;45325;-71
2023/03/20 11:07:25;;;;;;;;;0.50;0.50;;;;;23.35;32.72;101481.13;5090290;27;45405;-72
2023/03/20 11:10:09;;;;;;;;;1.50;1.50;;;;;23.38;32.74;101481.75;5096096;27;45700;-71
2023/03/20 11:12:36;;;;;;;;;2.00;0.75;;;;;23.34;32.76;101474.06;5102860;27;45513;-72
2023/03/20 11:15:20;;;;;;;;;2.00;1.25;;;;;23.41;32.76;101478.00;5113398;27;45240;-72
2023/03/20 11:17:59;;;;;;;;;3.00;1.00;;;;;23.39;32.71;101470.13;5112281;27;46263;-72
2023/03/20 11:20:33;;;;;;;;;1.25;1.25;;;;;23.43;32.74;101471.63;5100053;27;45306;-73
2023/03/20 11:23:03;;;;;;;;;3.00;0.25;;;;;23.42;32.87;101456.53;5091949;27;45319;-72
2023/03/20 11:25:32;;;;;;;;;0.25;0.25;;;;;23.42;32.83;101453.03;5097438;27;45604;-72
2023/03/20 11:28:18;;;;;;;;;1.00;1.00;;;;;23.42;32.80;101453.88;5082936;27;48275;-72
2023/03/20 11:30:43;;;;;;;;;5.00;2.00;;;;;23.46;32.94;101446.50;5115074;27;45432;-73
2023/03/20 11:33:10;;;;;;;;;2.25;1.00;;;;;23.48;32.48;101453.44;5072876;27;45368;-72
2023/03/20 11:35:38;;;;;;;;;2.00;2.00;;;;;23.50;32.55;101462.22;5082564;27;45380;-72